createdAt,value
2022-08-29T00:00:42.664Z,102178.41
2022-08-29T00:03:12.943Z,102178.41
2022-08-29T00:05:42.023Z,102170.41
2022-08-29T00:08:13.242Z,102176.63
2022-08-29T00:10:43.236Z,102166.88
2022-08-29T00:13:14.146Z,102173.06
2022-08-29T00:15:45.180Z,102171.28
2022-08-29T00:18:16.132Z,102160.63
2022-08-29T00:20:45.427Z,102166.88
2022-08-29T00:23:13.846Z,102171.31
2022-08-29T00:25:43.054Z,102166.88
2022-08-29T00:28:12.119Z,102164.19
2022-08-29T00:30:41.207Z,102169.56
2022-08-29T00:33:10.054Z,102163.31
2022-08-29T00:35:41.532Z,102160.66
2022-08-29T00:38:13.164Z,102169.53
2022-08-29T00:40:51.850Z,102165.09
2022-08-29T00:43:25.091Z,102168.66
2022-08-29T00:46:19.885Z,102163.31
2022-08-29T00:48:56.005Z,102157.13
2022-08-29T00:51:25.233Z,102155.31
2022-08-29T00:53:59.833Z,102156.25
2022-08-29T00:56:29.395Z,102166.00
2022-08-29T00:59:07.298Z,102163.34
2022-08-29T01:01:35.877Z,102155.34
2022-08-29T01:04:15.733Z,102154.47
2022-08-29T01:06:51.351Z,102156.22
2022-08-29T01:09:21.047Z,102154.44
2022-08-29T01:12:08.531Z,102155.34
2022-08-29T01:14:38.744Z,102159.78
2022-08-29T01:17:10.105Z,102163.31
2022-08-29T01:19:49.801Z,102158.00
2022-08-29T01:22:38.798Z,102159.78
2022-08-29T01:25:13.135Z,102158.91
2022-08-29T01:27:47.221Z,102161.56
2022-08-29T01:30:17.833Z,102158.88
2022-08-29T01:32:46.595Z,102164.22
2022-08-29T01:35:14.968Z,102158.88
2022-08-29T01:37:44.672Z,102160.66
2022-08-29T01:40:14.338Z,102166.00
2022-08-29T01:42:44.385Z,102163.34
2022-08-29T01:45:13.168Z,102160.66
2022-08-29T01:47:41.919Z,102171.31
2022-08-29T01:50:14.444Z,102177.53
2022-08-29T01:52:43.042Z,102176.66
2022-08-29T01:55:12.267Z,102180.19
2022-08-29T01:57:40.965Z,102169.53
2022-08-29T02:00:11.733Z,102175.75
2022-08-29T02:02:41.287Z,102169.53
2022-08-29T02:05:09.790Z,102167.78
2022-08-29T02:07:38.428Z,102169.53
2022-08-29T02:10:08.549Z,102173.09
2022-08-29T02:12:36.913Z,102172.19
2022-08-29T02:15:06.266Z,102172.19
2022-08-29T02:17:34.825Z,102174.84
2022-08-29T02:20:08.078Z,102167.78
2022-08-29T02:22:39.026Z,102166.88
2022-08-29T02:25:32.061Z,102167.75
2022-08-29T02:28:00.386Z,102161.56
2022-08-29T02:30:28.800Z,102160.69
2022-08-29T02:32:58.027Z,102163.34
2022-08-29T02:35:26.502Z,102163.31
2022-08-29T02:37:57.316Z,102168.63
2022-08-29T02:40:31.563Z,102168.66
2022-08-29T02:43:01.694Z,102164.22
2022-08-29T02:45:33.717Z,102161.56
2022-08-29T02:48:02.504Z,102158.00
2022-08-29T02:50:32.215Z,102153.56
2022-08-29T02:53:01.243Z,102153.56
2022-08-29T02:55:32.367Z,102167.78
2022-08-29T02:58:00.734Z,102161.53
2022-08-29T03:00:29.414Z,102168.66
2022-08-29T03:03:00.088Z,102172.19
2022-08-29T03:05:30.107Z,102165.09
2022-08-29T03:07:58.975Z,102162.44
2022-08-29T03:10:27.881Z,102165.97
2022-08-29T03:12:56.495Z,102158.91
2022-08-29T03:15:26.319Z,102162.44
2022-08-29T03:17:55.378Z,102165.09
2022-08-29T03:20:24.627Z,102158.88
2022-08-29T03:22:54.349Z,102154.47
2022-08-29T03:25:24.422Z,102149.13
2022-08-29T03:27:53.070Z,102159.78
2022-08-29T03:30:24.091Z,102164.19
2022-08-29T03:32:53.981Z,102165.09
2022-08-29T03:35:22.744Z,102156.22
2022-08-29T03:37:55.311Z,102158.88
2022-08-29T03:40:25.595Z,102162.41
2022-08-29T03:42:55.367Z,102160.66
2022-08-29T03:45:25.701Z,102166.84
2022-08-29T03:47:57.211Z,102162.44
2022-08-29T03:50:25.573Z,102169.56
2022-08-29T03:52:54.073Z,102170.41
2022-08-29T03:55:22.610Z,102159.78
2022-08-29T03:57:51.307Z,102173.97
2022-08-29T04:00:20.155Z,102167.75
2022-08-29T04:02:49.415Z,102169.53
2022-08-29T04:05:18.171Z,102173.09
2022-08-29T04:07:48.111Z,102173.97
2022-08-29T04:10:24.508Z,102169.56
2022-08-29T04:12:55.046Z,102167.75
2022-08-29T04:15:26.579Z,102168.63
2022-08-29T04:18:00.153Z,102170.41
2022-08-29T04:20:37.802Z,102169.56
2022-08-29T04:23:06.798Z,102170.44
2022-08-29T04:25:38.110Z,102171.31
2022-08-29T04:28:10.166Z,102169.53
2022-08-29T04:30:40.220Z,102167.75
2022-08-29T04:33:12.828Z,102168.66
2022-08-29T04:35:52.169Z,102169.53
2022-08-29T04:38:21.591Z,102164.19
2022-08-29T04:40:50.070Z,102170.41
2022-08-29T04:43:18.377Z,102163.34
2022-08-29T04:45:54.542Z,102162.41
2022-08-29T04:48:23.339Z,102167.75
2022-08-29T04:50:59.438Z,102169.53
2022-08-29T04:53:28.854Z,102167.75
2022-08-29T04:56:11.988Z,102173.97
2022-08-29T04:58:44.144Z,102173.94
2022-08-29T05:01:14.525Z,102175.72
2022-08-29T05:03:44.258Z,102180.19
2022-08-29T05:06:14.720Z,102181.94
2022-08-29T05:08:44.153Z,102174.00
2022-08-29T05:11:22.600Z,102172.22
2022-08-29T05:13:54.295Z,102181.97
2022-08-29T05:16:23.693Z,102178.41
2022-08-29T05:18:52.416Z,102182.84
2022-08-29T05:21:34.008Z,102186.38
2022-08-29T05:24:07.203Z,102194.38
2022-08-29T05:26:39.383Z,102195.25
2022-08-29T05:29:09.984Z,102198.81
2022-08-29T05:31:39.531Z,102194.38
2022-08-29T05:34:18.392Z,102191.66
2022-08-29T05:36:57.881Z,102191.69
2022-08-29T05:39:26.355Z,102202.34
2022-08-29T05:41:55.846Z,102199.63
2022-08-29T05:44:24.846Z,102199.66
2022-08-29T05:46:53.319Z,102212.97
2022-08-29T05:49:22.261Z,102210.28
2022-08-29T05:51:53.490Z,102209.38
2022-08-29T05:54:23.651Z,102205.81
2022-08-29T05:56:53.186Z,102209.38
2022-08-29T05:59:21.968Z,102208.47
2022-08-29T06:01:50.302Z,102210.25
2022-08-29T06:04:24.420Z,102215.53
2022-08-29T06:06:52.819Z,102211.09
2022-08-29T06:09:21.274Z,102212.88
2022-08-29T06:11:51.522Z,102216.44
2022-08-29T06:14:20.910Z,102218.19
2022-08-29T06:16:49.821Z,102219.97
2022-08-29T06:19:21.850Z,102220.84
2022-08-29T06:21:50.779Z,102219.94
2022-08-29T06:24:19.161Z,102225.25
2022-08-29T06:26:47.501Z,102221.72
2022-08-29T06:29:16.765Z,102227.03
2022-08-29T06:31:45.215Z,102220.81
2022-08-29T06:34:13.554Z,102214.56
2022-08-29T06:36:42.254Z,102224.31
2022-08-29T06:39:11.865Z,102216.31
2022-08-29T06:41:41.549Z,102222.53
2022-08-29T06:44:10.470Z,102225.16
2022-08-29T06:46:46.174Z,102229.63
2022-08-29T06:49:16.326Z,102229.63
2022-08-29T06:51:49.162Z,102234.94
2022-08-29T06:54:20.191Z,102234.94
2022-08-29T06:56:49.746Z,102226.94
2022-08-29T06:59:19.661Z,102227.81
2022-08-29T07:01:48.329Z,102221.53
2022-08-29T07:04:16.861Z,102220.63
2022-08-29T07:06:50.071Z,102220.59
2022-08-29T07:09:21.626Z,102217.88
2022-08-29T07:11:50.074Z,102217.81
2022-08-29T07:14:18.714Z,102215.06
2022-08-29T07:16:49.528Z,102220.34
2022-08-29T07:19:18.097Z,102222.00
2022-08-29T07:21:46.491Z,102217.47
2022-08-29T07:24:14.927Z,102223.63
2022-08-29T07:26:44.817Z,102229.81
2022-08-29T07:29:17.573Z,102221.81
2022-08-29T07:31:47.513Z,102223.56
2022-08-29T07:34:20.740Z,102225.28
2022-08-29T07:36:49.441Z,102219.84
2022-08-29T07:39:23.129Z,102221.50
2022-08-29T07:41:51.423Z,102223.16
2022-08-29T07:44:19.904Z,102228.44
2022-08-29T07:46:48.487Z,102222.19
2022-08-29T07:49:17.098Z,102230.22
2022-08-29T07:51:48.035Z,102232.88
2022-08-29T07:54:18.792Z,102234.66
2022-08-29T07:56:49.553Z,102231.13
2022-08-29T07:59:20.200Z,102231.13
2022-08-29T08:01:49.336Z,102239.09
2022-08-29T08:04:18.370Z,102233.75
2022-08-29T08:06:48.007Z,102242.69
2022-08-29T08:09:16.481Z,102247.06
2022-08-29T08:11:44.990Z,102251.53
2022-08-29T08:14:13.834Z,102253.25
2022-08-29T08:16:44.104Z,102251.38
2022-08-29T08:19:15.700Z,102255.78
2022-08-29T08:21:49.566Z,102248.63
2022-08-29T08:24:20.229Z,102256.69
2022-08-29T08:26:49.304Z,102255.84
2022-08-29T08:29:17.887Z,102253.09
2022-08-29T08:31:49.307Z,102247.66
2022-08-29T08:34:20.600Z,102253.84
2022-08-29T08:36:50.414Z,102257.41
2022-08-29T08:39:19.733Z,102254.72
2022-08-29T08:42:05.602Z,102253.75
2022-08-29T08:45:16.115Z,102257.31
2022-08-29T08:48:02.946Z,102269.72
2022-08-29T08:50:44.650Z,102263.38
2022-08-29T08:53:17.114Z,102266.03
2022-08-29T08:55:57.217Z,102264.25
2022-08-29T08:58:35.553Z,102270.56
2022-08-29T09:01:39.691Z,102262.63
2022-08-29T09:04:27.184Z,102274.25
2022-08-29T09:07:01.830Z,102266.28
2022-08-29T09:09:45.361Z,102268.09
2022-08-29T09:12:30.273Z,102267.25
2022-08-29T09:15:10.471Z,102274.34
2022-08-29T09:17:53.205Z,102269.84
2022-08-29T09:20:28.810Z,102263.63
2022-08-29T09:23:23.214Z,102265.34
2022-08-29T09:25:52.192Z,102270.66
2022-08-29T09:28:21.100Z,102266.16
2022-08-29T09:31:27.192Z,102273.16
2022-08-29T09:33:57.894Z,102274.88
2022-08-29T09:36:42.030Z,102277.53
2022-08-29T09:39:29.828Z,102273.91
2022-08-29T09:42:11.910Z,102276.59
2022-08-29T09:44:51.048Z,102271.28
2022-08-29T09:47:25.195Z,102280.16
2022-08-29T09:50:24.775Z,102262.25
2022-08-29T09:52:59.583Z,102264.00
2022-08-29T09:55:35.675Z,102261.19
2022-08-29T09:58:10.781Z,102268.19
2022-08-29T10:00:44.166Z,102269.09
2022-08-29T10:03:22.834Z,102268.25
2022-08-29T10:06:12.901Z,102256.63
2022-08-29T10:08:54.746Z,102266.47
2022-08-29T10:11:55.717Z,102270.75
2022-08-29T10:14:50.420Z,102267.09
2022-08-29T10:17:45.037Z,102273.25
2022-08-29T10:20:13.617Z,102283.84
2022-08-29T10:23:06.112Z,102277.53
2022-08-29T10:25:41.381Z,102273.13
2022-08-29T10:28:20.324Z,102276.78
2022-08-29T10:31:13.004Z,102276.03
2022-08-29T10:33:44.429Z,102274.28
2022-08-29T10:36:18.109Z,102282.28
2022-08-29T10:39:01.904Z,102279.63
2022-08-29T10:41:50.357Z,102282.38
2022-08-29T10:44:56.163Z,102285.09
2022-08-29T10:47:32.836Z,102288.63
2022-08-29T10:50:45.268Z,102289.56
2022-08-29T10:53:39.074Z,102292.25
2022-08-29T10:56:14.291Z,102291.41
2022-08-29T10:59:05.504Z,102284.34
2022-08-29T11:01:52.647Z,102285.22
2022-08-29T11:04:30.044Z,102284.34
2022-08-29T11:07:18.751Z,102279.84
2022-08-29T11:09:52.302Z,102284.25
2022-08-29T11:12:41.849Z,102278.78
2022-08-29T11:15:36.311Z,102283.03
2022-08-29T11:18:22.286Z,102290.06
2022-08-29T11:20:57.855Z,102277.44
2022-08-29T11:23:47.954Z,102279.09
2022-08-29T11:26:26.709Z,102282.63
2022-08-29T11:28:57.248Z,102272.75
2022-08-29T11:31:45.505Z,102274.44
2022-08-29T11:34:31.778Z,102278.81
2022-08-29T11:37:31.391Z,102287.75
2022-08-29T11:40:47.343Z,102284.19
2022-08-29T11:43:15.541Z,102264.44
2022-08-29T11:45:53.381Z,102273.22
2022-08-29T11:48:21.767Z,102276.66
2022-08-29T11:50:50.268Z,102273.00
2022-08-29T11:53:20.777Z,102279.19
2022-08-29T11:56:14.158Z,102276.38
2022-08-29T11:58:46.741Z,102273.69
2022-08-29T12:01:24.537Z,102268.22
2022-08-29T12:03:57.327Z,102271.59
2022-08-29T12:06:31.895Z,102271.38
2022-08-29T12:09:13.939Z,102268.53
2022-08-29T12:12:20.215Z,102272.84
2022-08-29T12:14:53.179Z,102272.97
2022-08-29T12:17:45.128Z,102277.59
2022-08-29T12:20:30.013Z,102264.44
2022-08-29T12:23:01.522Z,102263.81
2022-08-29T12:26:03.701Z,102271.91
2022-08-29T12:28:47.972Z,102268.44
2022-08-29T12:32:02.094Z,102268.38
2022-08-29T12:35:15.158Z,102267.47
2022-08-29T12:38:19.090Z,102260.41
2022-08-29T12:41:08.191Z,102262.03
2022-08-29T12:43:42.974Z,102262.94
2022-08-29T12:46:22.919Z,102263.69
2022-08-29T12:48:58.536Z,102262.72
2022-08-29T12:51:38.167Z,102263.81
2022-08-29T12:54:08.056Z,102264.69
2022-08-29T12:56:42.929Z,102270.03
2022-08-29T12:59:19.380Z,102261.06
2022-08-29T13:01:55.885Z,102255.59
2022-08-29T13:04:32.065Z,102254.66
2022-08-29T13:07:15.663Z,102269.84
2022-08-29T13:09:53.539Z,102261.88
2022-08-29T13:12:25.075Z,102244.72
2022-08-29T13:14:53.477Z,102249.91
2022-08-29T13:17:48.868Z,102249.75
2022-08-29T13:20:40.894Z,102255.69
2022-08-29T13:23:25.138Z,102251.16
2022-08-29T13:26:00.876Z,102247.47
2022-08-29T13:28:47.411Z,102242.81
2022-08-29T13:31:15.942Z,102237.50
2022-08-29T13:33:48.638Z,102242.84
2022-08-29T13:36:51.058Z,102249.28
2022-08-29T13:39:28.084Z,102244.91
2022-08-29T13:42:02.490Z,102234.28
2022-08-29T13:44:38.880Z,102230.69
2022-08-29T13:47:26.456Z,102229.81
2022-08-29T13:50:01.323Z,102235.22
2022-08-29T13:52:31.947Z,102239.66
2022-08-29T13:55:01.626Z,102235.28
2022-08-29T13:57:31.667Z,102242.50
2022-08-29T14:00:02.445Z,102243.41
2022-08-29T14:02:51.628Z,102244.59
2022-08-29T14:05:20.599Z,102246.69
2022-08-29T14:07:50.474Z,102242.38
2022-08-29T14:10:19.222Z,102238.00
2022-08-29T14:12:47.798Z,102240.53
2022-08-29T14:15:18.563Z,102232.34
2022-08-29T14:17:48.280Z,102235.88
2022-08-29T14:20:19.117Z,102236.75
2022-08-29T14:22:48.796Z,102227.78
2022-08-29T14:25:19.761Z,102234.06
2022-08-29T14:27:49.273Z,102226.97
2022-08-29T14:30:21.074Z,102230.69
2022-08-29T14:32:49.464Z,102229.97
2022-08-29T14:35:26.842Z,102229.25
2022-08-29T14:38:01.499Z,102220.44
2022-08-29T14:40:32.891Z,102220.41
2022-08-29T14:43:02.864Z,102224.88
2022-08-29T14:45:32.148Z,102233.97
2022-08-29T14:48:01.580Z,102226.91
2022-08-29T14:50:29.997Z,102227.88
2022-08-29T14:53:08.248Z,102222.56
2022-08-29T14:55:37.890Z,102231.53
2022-08-29T14:58:08.366Z,102228.94
2022-08-29T15:00:36.868Z,102223.81
2022-08-29T15:03:05.617Z,102221.16
2022-08-29T15:05:34.648Z,102225.66
2022-08-29T15:08:08.980Z,102215.84
2022-08-29T15:10:40.113Z,102218.50
2022-08-29T15:13:08.539Z,102212.22
2022-08-29T15:15:36.977Z,102209.59
2022-08-29T15:18:06.921Z,102212.44
2022-08-29T15:20:37.256Z,102208.97
2022-08-29T15:23:06.821Z,102218.91
2022-08-29T15:25:35.812Z,102211.84
2022-08-29T15:28:05.725Z,102209.22
2022-08-29T15:30:52.673Z,102207.47
2022-08-29T15:33:32.115Z,102223.63
2022-08-29T15:36:01.681Z,102214.72
2022-08-29T15:38:30.173Z,102224.59
2022-08-29T15:40:58.582Z,102217.47
2022-08-29T15:43:36.422Z,102214.88
2022-08-29T15:46:06.432Z,102213.03
2022-08-29T15:48:34.986Z,102204.09
2022-08-29T15:51:04.351Z,102207.72
2022-08-29T15:53:32.728Z,102206.00
2022-08-29T15:56:01.758Z,102196.28
2022-08-29T15:58:30.603Z,102203.47
2022-08-29T16:00:59.339Z,102203.56
2022-08-29T16:03:27.951Z,102198.25
2022-08-29T16:05:57.493Z,102190.28
2022-08-29T16:08:29.676Z,102177.78
2022-08-29T16:11:06.056Z,102185.72
2022-08-29T16:13:35.407Z,102189.25
2022-08-29T16:16:03.770Z,102182.03
2022-08-29T16:18:32.114Z,102182.00
2022-08-29T16:21:00.604Z,102181.09
2022-08-29T16:23:30.358Z,102172.22
2022-08-29T16:25:58.795Z,102184.72
2022-08-29T16:28:31.341Z,102182.94
2022-08-29T16:31:00.123Z,102183.03
2022-08-29T16:33:28.564Z,102181.41
2022-08-29T16:35:59.139Z,102183.25
2022-08-29T16:38:28.407Z,102181.56
2022-08-29T16:40:56.785Z,102185.22
2022-08-29T16:43:26.155Z,102185.22
2022-08-29T16:45:54.674Z,102179.91
2022-08-29T16:48:24.327Z,102181.75
2022-08-29T16:50:54.247Z,102179.16
2022-08-29T16:53:22.915Z,102173.84
2022-08-29T16:55:51.220Z,102171.25
2022-08-29T16:58:38.322Z,102173.94
2022-08-29T17:01:07.541Z,102170.41
2022-08-29T17:03:36.300Z,102170.41
2022-08-29T17:06:05.827Z,102173.97
2022-08-29T17:08:37.571Z,102170.44
2022-08-29T17:11:06.588Z,102169.56
2022-08-29T17:13:34.853Z,102168.69
2022-08-29T17:16:06.784Z,102162.50
2022-08-29T17:18:36.551Z,102167.88
2022-08-29T17:21:06.394Z,102168.81
2022-08-29T17:23:36.404Z,102169.69
2022-08-29T17:26:08.627Z,102166.16
2022-08-29T17:28:38.977Z,102164.41
2022-08-29T17:31:09.102Z,102167.19
2022-08-29T17:33:39.141Z,102162.72
2022-08-29T17:36:08.903Z,102178.81
2022-08-29T17:38:41.160Z,102173.50
2022-08-29T17:41:14.932Z,102184.25
2022-08-29T17:43:50.019Z,102180.72
2022-08-29T17:46:21.794Z,102179.84
2022-08-29T17:48:50.671Z,102186.09
2022-08-29T17:51:21.578Z,102191.50
2022-08-29T17:53:52.131Z,102194.25
2022-08-29T17:56:38.168Z,102198.69
2022-08-29T17:59:14.287Z,102193.41
2022-08-29T18:01:43.190Z,102202.38
2022-08-29T18:04:11.968Z,102205.06
2022-08-29T18:06:40.803Z,102198.84
2022-08-29T18:09:13.514Z,102199.78
2022-08-29T18:11:46.555Z,102199.78
2022-08-29T18:14:15.699Z,102207.84
2022-08-29T18:16:44.300Z,102202.53
2022-08-29T18:19:17.591Z,102203.47
2022-08-29T18:21:56.095Z,102204.38
2022-08-29T18:24:28.099Z,102203.53
2022-08-29T18:27:02.486Z,102213.34
2022-08-29T18:29:34.118Z,102219.59
2022-08-29T18:32:05.063Z,102216.06
2022-08-29T18:34:38.826Z,102223.19
2022-08-29T18:37:08.451Z,102224.13
2022-08-29T18:39:37.029Z,102221.47
2022-08-29T18:42:24.758Z,102231.25
2022-08-29T18:44:56.886Z,102227.72
2022-08-29T18:47:28.339Z,102238.44
2022-08-29T18:50:15.442Z,102242.88
2022-08-29T18:52:46.998Z,102244.69
2022-08-29T18:55:19.685Z,102249.16
2022-08-29T18:57:49.128Z,102245.59
2022-08-29T19:00:18.638Z,102247.41
2022-08-29T19:02:47.485Z,102250.97
2022-08-29T19:05:17.338Z,102252.72
2022-08-29T19:07:45.744Z,102259.84
2022-08-29T19:10:14.373Z,102260.72
2022-08-29T19:12:44.219Z,102265.16
2022-08-29T19:15:17.993Z,102266.97
2022-08-29T19:17:46.620Z,102262.53
2022-08-29T19:20:37.441Z,102268.75
2022-08-29T19:23:10.148Z,102261.63
2022-08-29T19:25:40.190Z,102275.00
2022-08-29T19:28:10.858Z,102275.00
2022-08-29T19:30:39.745Z,102272.34
2022-08-29T19:33:09.957Z,102266.13
2022-08-29T19:35:39.377Z,102270.56
2022-08-29T19:38:08.582Z,102264.34
2022-08-29T19:40:39.144Z,102270.56
2022-08-29T19:43:13.681Z,102272.38
2022-08-29T19:45:48.781Z,102268.78
2022-08-29T19:48:26.399Z,102269.69
2022-08-29T19:50:58.915Z,102271.47
2022-08-29T19:53:27.546Z,102270.59
2022-08-29T19:55:56.581Z,102261.69
2022-08-29T19:58:31.705Z,102261.69
2022-08-29T20:01:03.359Z,102263.50
2022-08-29T20:03:35.476Z,102263.53
2022-08-29T20:06:07.590Z,102264.41
2022-08-29T20:08:39.920Z,102259.94
2022-08-29T20:11:24.749Z,102264.38
2022-08-29T20:14:03.514Z,102267.97
2022-08-29T20:16:32.722Z,102266.22
2022-08-29T20:19:04.840Z,102271.53
2022-08-29T20:21:34.889Z,102274.19
2022-08-29T20:24:05.363Z,102279.53
2022-08-29T20:26:35.821Z,102279.53
2022-08-29T20:29:17.365Z,102278.63
2022-08-29T20:31:46.376Z,102275.97
2022-08-29T20:34:15.772Z,102283.09
2022-08-29T20:37:02.933Z,102278.66
2022-08-29T20:39:32.479Z,102278.66
2022-08-29T20:42:02.305Z,102279.56
2022-08-29T20:44:34.162Z,102284.00
2022-08-29T20:47:04.041Z,102287.53
2022-08-29T20:49:33.835Z,102280.47
2022-08-29T20:52:05.021Z,102287.53
2022-08-29T20:54:35.314Z,102284.00
2022-08-29T20:57:05.459Z,102287.56
2022-08-29T20:59:36.132Z,102284.03
2022-08-29T21:02:06.542Z,102289.34
2022-08-29T21:04:53.400Z,102286.69
2022-08-29T21:07:25.380Z,102294.66
2022-08-29T21:09:55.809Z,102286.66
2022-08-29T21:12:27.493Z,102290.22
2022-08-29T21:14:56.094Z,102290.22
2022-08-29T21:17:24.606Z,102299.13
2022-08-29T21:19:53.238Z,102294.66
2022-08-29T21:22:24.786Z,102290.22
2022-08-29T21:24:55.643Z,102289.34
2022-08-29T21:27:24.447Z,102295.53
2022-08-29T21:29:55.939Z,102289.34
2022-08-29T21:32:24.752Z,102294.66
2022-08-29T21:34:53.101Z,102278.72
2022-08-29T21:37:21.793Z,102284.03
2022-08-29T21:39:50.197Z,102284.03
2022-08-29T21:42:19.909Z,102275.13
2022-08-29T21:44:48.585Z,102276.91
2022-08-29T21:47:17.955Z,102276.03
2022-08-29T21:49:48.471Z,102271.59
2022-08-29T21:52:17.410Z,102269.81
2022-08-29T21:54:46.259Z,102270.72
2022-08-29T21:57:18.350Z,102271.59
2022-08-29T21:59:47.655Z,102273.38
2022-08-29T22:02:17.554Z,102276.03
2022-08-29T22:04:46.073Z,102269.81
2022-08-29T22:07:14.461Z,102276.91
2022-08-29T22:09:43.644Z,102273.38
2022-08-29T22:12:11.978Z,102272.47
2022-08-29T22:15:06.604Z,102275.16
2022-08-29T22:17:35.113Z,102270.72
2022-08-29T22:20:04.977Z,102261.84
2022-08-29T22:22:33.497Z,102271.59
2022-08-29T22:25:02.519Z,102273.38
2022-08-29T22:27:31.981Z,102267.16
2022-08-29T22:30:00.521Z,102272.47
2022-08-29T22:32:32.309Z,102270.72
2022-08-29T22:35:12.398Z,102276.03
2022-08-29T22:37:41.518Z,102272.47
2022-08-29T22:40:13.877Z,102278.72
2022-08-29T22:42:43.325Z,102279.56
2022-08-29T22:45:13.984Z,102276.91
2022-08-29T22:47:43.142Z,102279.56
2022-08-29T22:50:16.375Z,102278.72
2022-08-29T22:52:46.097Z,102270.72
2022-08-29T22:55:17.710Z,102283.16
2022-08-29T22:57:46.760Z,102276.03
2022-08-29T23:00:19.397Z,102272.44
2022-08-29T23:02:48.861Z,102287.53
2022-08-29T23:05:18.027Z,102271.56
2022-08-29T23:07:46.949Z,102276.00
2022-08-29T23:10:15.738Z,102276.00
2022-08-29T23:12:44.234Z,102280.44
2022-08-29T23:15:15.362Z,102283.97
2022-08-29T23:17:44.849Z,102279.53
2022-08-29T23:20:15.026Z,102285.78
2022-08-29T23:22:43.973Z,102283.97
2022-08-29T23:25:13.477Z,102282.22
2022-08-29T23:27:44.782Z,102281.34
2022-08-29T23:30:14.607Z,102287.53
2022-08-29T23:32:42.945Z,102285.75
2022-08-29T23:35:12.542Z,102286.63
2022-08-29T23:37:41.068Z,102289.31
2022-08-29T23:40:09.896Z,102285.75
2022-08-29T23:42:42.379Z,102276.00
2022-08-29T23:45:12.191Z,102276.00
2022-08-29T23:47:41.253Z,102281.31
2022-08-29T23:50:10.123Z,102283.97
2022-08-29T23:52:38.600Z,102274.25
2022-08-29T23:55:10.110Z,102277.78
2022-08-29T23:57:43.328Z,102283.13
